sensor_id;sensor_type;location;lat;lon;timestamp;temperature;humidity
3942;DHT22;1985;48.592;8.850;2023-04-25T00:00:28;9.70;99.90
3942;DHT22;1985;48.592;8.850;2023-04-25T00:02:54;9.60;99.90
3942;DHT22;1985;48.592;8.850;2023-04-25T00:05:22;9.40;99.90
3942;DHT22;1985;48.592;8.850;2023-04-25T00:07:49;9.40;99.90
3942;DHT22;1985;48.592;8.850;2023-04-25T00:10:15;9.40;99.90
3942;DHT22;1985;48.592;8.850;2023-04-25T00:12:40;9.40;99.90
3942;DHT22;1985;48.592;8.850;2023-04-25T00:15:07;9.40;99.90
3942;DHT22;1985;48.592;8.850;2023-04-25T00:17:33;9.50;99.90
3942;DHT22;1985;48.592;8.850;2023-04-25T00:20:00;9.50;99.90
3942;DHT22;1985;48.592;8.850;2023-04-25T00:22:26;9.50;99.90
3942;DHT22;1985;48.592;8.850;2023-04-25T00:24:52;9.50;99.90
3942;DHT22;1985;48.592;8.850;2023-04-25T00:27:18;9.50;99.90
3942;DHT22;1985;48.592;8.850;2023-04-25T00:29:44;9.50;99.90
3942;DHT22;1985;48.592;8.850;2023-04-25T00:32:10;9.50;99.90
3942;DHT22;1985;48.592;8.850;2023-04-25T00:34:35;9.60;99.90
3942;DHT22;1985;48.592;8.850;2023-04-25T00:37:01;9.40;99.90
3942;DHT22;1985;48.592;8.850;2023-04-25T00:39:27;9.10;99.90
3942;DHT22;1985;48.592;8.850;2023-04-25T00:41:54;9.00;99.90
3942;DHT22;1985;48.592;8.850;2023-04-25T00:44:20;8.80;99.90
3942;DHT22;1985;48.592;8.850;2023-04-25T00:46:47;8.90;99.90
3942;DHT22;1985;48.592;8.850;2023-04-25T00:49:14;9.00;99.90
3942;DHT22;1985;48.592;8.850;2023-04-25T00:51:42;9.00;99.90
3942;DHT22;1985;48.592;8.850;2023-04-25T00:54:13;9.10;99.90
3942;DHT22;1985;48.592;8.850;2023-04-25T00:56:39;9.10;99.90
3942;DHT22;1985;48.592;8.850;2023-04-25T00:59:05;9.20;99.90
3942;DHT22;1985;48.592;8.850;2023-04-25T01:01:32;9.20;99.90
3942;DHT22;1985;48.592;8.850;2023-04-25T01:03:59;9.30;99.90
3942;DHT22;1985;48.592;8.850;2023-04-25T01:06:25;9.30;99.90
3942;DHT22;1985;48.592;8.850;2023-04-25T01:08:51;9.30;99.90
3942;DHT22;1985;48.592;8.850;2023-04-25T01:11:17;9.40;99.90
3942;DHT22;1985;48.592;8.850;2023-04-25T01:13:43;9.40;99.90
3942;DHT22;1985;48.592;8.850;2023-04-25T01:16:08;9.50;99.90
3942;DHT22;1985;48.592;8.850;2023-04-25T01:18:34;9.60;99.90
3942;DHT22;1985;48.592;8.850;2023-04-25T01:21:07;9.60;99.90
3942;DHT22;1985;48.592;8.850;2023-04-25T01:23:34;9.70;99.90
3942;DHT22;1985;48.592;8.850;2023-04-25T01:26:00;9.70;99.90
3942;DHT22;1985;48.592;8.850;2023-04-25T01:28:27;9.70;99.90
3942;DHT22;1985;48.592;8.850;2023-04-25T01:30:53;9.50;99.90
3942;DHT22;1985;48.592;8.850;2023-04-25T01:33:21;9.40;99.90
3942;DHT22;1985;48.592;8.850;2023-04-25T01:35:47;9.00;99.90
3942;DHT22;1985;48.592;8.850;2023-04-25T01:38:13;8.90;99.90
3942;DHT22;1985;48.592;8.850;2023-04-25T01:40:40;8.90;99.90
3942;DHT22;1985;48.592;8.850;2023-04-25T01:43:09;8.90;99.90
3942;DHT22;1985;48.592;8.850;2023-04-25T01:45:38;8.80;99.90
3942;DHT22;1985;48.592;8.850;2023-04-25T01:48:11;8.80;99.90
3942;DHT22;1985;48.592;8.850;2023-04-25T01:50:38;8.80;99.90
3942;DHT22;1985;48.592;8.850;2023-04-25T01:53:05;8.80;99.90
3942;DHT22;1985;48.592;8.850;2023-04-25T01:55:30;8.90;99.90
3942;DHT22;1985;48.592;8.850;2023-04-25T01:57:56;9.00;99.90
3942;DHT22;1985;48.592;8.850;2023-04-25T02:00:22;9.00;99.90
3942;DHT22;1985;48.592;8.850;2023-04-25T02:02:48;9.00;99.90
3942;DHT22;1985;48.592;8.850;2023-04-25T02:05:16;9.00;99.90
3942;DHT22;1985;48.592;8.850;2023-04-25T02:07:42;9.00;99.90
3942;DHT22;1985;48.592;8.850;2023-04-25T02:10:08;9.00;99.90
3942;DHT22;1985;48.592;8.850;2023-04-25T02:12:35;9.00;99.90
3942;DHT22;1985;48.592;8.850;2023-04-25T02:15:01;9.10;99.90
3942;DHT22;1985;48.592;8.850;2023-04-25T02:17:27;9.00;99.90
3942;DHT22;1985;48.592;8.850;2023-04-25T02:19:52;8.90;99.90
3942;DHT22;1985;48.592;8.850;2023-04-25T02:22:18;8.80;99.90
3942;DHT22;1985;48.592;8.850;2023-04-25T02:24:44;8.80;99.90
3942;DHT22;1985;48.592;8.850;2023-04-25T02:27:09;8.90;99.90
3942;DHT22;1985;48.592;8.850;2023-04-25T02:29:35;8.90;99.90
3942;DHT22;1985;48.592;8.850;2023-04-25T02:32:00;8.90;99.90
3942;DHT22;1985;48.592;8.850;2023-04-25T02:34:26;8.90;99.90
3942;DHT22;1985;48.592;8.850;2023-04-25T02:36:52;8.80;99.90
3942;DHT22;1985;48.592;8.850;2023-04-25T02:39:17;8.80;99.90
3942;DHT22;1985;48.592;8.850;2023-04-25T02:41:43;8.80;99.90
3942;DHT22;1985;48.592;8.850;2023-04-25T02:44:08;8.80;99.90
3942;DHT22;1985;48.592;8.850;2023-04-25T02:46:34;8.80;99.90
3942;DHT22;1985;48.592;8.850;2023-04-25T02:49:00;8.80;99.90
3942;DHT22;1985;48.592;8.850;2023-04-25T02:51:25;8.70;99.90
3942;DHT22;1985;48.592;8.850;2023-04-25T02:53:51;8.70;99.90
3942;DHT22;1985;48.592;8.850;2023-04-25T02:56:17;8.70;99.90
3942;DHT22;1985;48.592;8.850;2023-04-25T02:58:42;8.70;99.90
3942;DHT22;1985;48.592;8.850;2023-04-25T03:01:08;8.60;99.90
3942;DHT22;1985;48.592;8.850;2023-04-25T03:03:34;8.70;99.90
3942;DHT22;1985;48.592;8.850;2023-04-25T03:05:59;8.70;99.90
3942;DHT22;1985;48.592;8.850;2023-04-25T03:08:25;8.70;99.90
3942;DHT22;1985;48.592;8.850;2023-04-25T03:10:52;8.70;99.90
3942;DHT22;1985;48.592;8.850;2023-04-25T03:13:20;8.80;99.90
3942;DHT22;1985;48.592;8.850;2023-04-25T03:15:46;8.70;99.90
3942;DHT22;1985;48.592;8.850;2023-04-25T03:18:12;8.70;99.90
3942;DHT22;1985;48.592;8.850;2023-04-25T03:20:37;8.80;99.90
3942;DHT22;1985;48.592;8.850;2023-04-25T03:23:04;8.80;99.90
3942;DHT22;1985;48.592;8.850;2023-04-25T03:25:30;8.80;99.90
3942;DHT22;1985;48.592;8.850;2023-04-25T03:27:56;8.90;99.90
3942;DHT22;1985;48.592;8.850;2023-04-25T03:30:22;8.80;99.90
3942;DHT22;1985;48.592;8.850;2023-04-25T03:32:48;8.60;99.90
3942;DHT22;1985;48.592;8.850;2023-04-25T03:35:13;8.50;99.90
3942;DHT22;1985;48.592;8.850;2023-04-25T03:37:39;8.40;99.90
3942;DHT22;1985;48.592;8.850;2023-04-25T03:40:06;8.30;99.90
3942;DHT22;1985;48.592;8.850;2023-04-25T03:42:32;8.40;99.90
3942;DHT22;1985;48.592;8.850;2023-04-25T03:44:57;8.30;99.90
3942;DHT22;1985;48.592;8.850;2023-04-25T03:47:23;8.30;99.90
3942;DHT22;1985;48.592;8.850;2023-04-25T03:49:48;8.30;99.90
3942;DHT22;1985;48.592;8.850;2023-04-25T03:52:19;8.40;99.90
3942;DHT22;1985;48.592;8.850;2023-04-25T03:54:45;8.30;99.90
3942;DHT22;1985;48.592;8.850;2023-04-25T03:57:10;8.30;99.90
3942;DHT22;1985;48.592;8.850;2023-04-25T03:59:36;8.30;99.90
3942;DHT22;1985;48.592;8.850;2023-04-25T04:02:02;8.20;99.90
3942;DHT22;1985;48.592;8.850;2023-04-25T04:04:27;8.10;99.90
3942;DHT22;1985;48.592;8.850;2023-04-25T04:06:53;8.10;99.90
3942;DHT22;1985;48.592;8.850;2023-04-25T04:09:18;8.10;99.90
3942;DHT22;1985;48.592;8.850;2023-04-25T04:11:45;8.10;99.90
3942;DHT22;1985;48.592;8.850;2023-04-25T04:14:11;8.10;99.90
3942;DHT22;1985;48.592;8.850;2023-04-25T04:16:36;7.90;99.90
3942;DHT22;1985;48.592;8.850;2023-04-25T04:19:02;7.80;99.90
3942;DHT22;1985;48.592;8.850;2023-04-25T04:21:28;7.80;99.90
3942;DHT22;1985;48.592;8.850;2023-04-25T04:23:54;7.80;99.90
3942;DHT22;1985;48.592;8.850;2023-04-25T04:26:20;7.80;99.90
3942;DHT22;1985;48.592;8.850;2023-04-25T04:28:50;7.90;99.90
3942;DHT22;1985;48.592;8.850;2023-04-25T04:31:20;7.90;99.90
3942;DHT22;1985;48.592;8.850;2023-04-25T04:33:46;8.10;99.90
3942;DHT22;1985;48.592;8.850;2023-04-25T04:36:12;8.20;99.90
3942;DHT22;1985;48.592;8.850;2023-04-25T04:38:38;8.30;99.90
3942;DHT22;1985;48.592;8.850;2023-04-25T04:41:05;8.40;99.90
3942;DHT22;1985;48.592;8.850;2023-04-25T04:43:31;8.60;99.90
3942;DHT22;1985;48.592;8.850;2023-04-25T04:46:00;8.60;99.90
3942;DHT22;1985;48.592;8.850;2023-04-25T04:48:26;8.50;99.90
3942;DHT22;1985;48.592;8.850;2023-04-25T04:50:51;8.40;99.90
3942;DHT22;1985;48.592;8.850;2023-04-25T04:53:17;8.20;99.90
3942;DHT22;1985;48.592;8.850;2023-04-25T04:55:43;8.10;99.90
3942;DHT22;1985;48.592;8.850;2023-04-25T04:58:09;8.00;99.90
3942;DHT22;1985;48.592;8.850;2023-04-25T05:00:35;8.00;99.90
3942;DHT22;1985;48.592;8.850;2023-04-25T05:03:00;7.90;99.90
3942;DHT22;1985;48.592;8.850;2023-04-25T05:05:26;7.80;99.90
3942;DHT22;1985;48.592;8.850;2023-04-25T05:07:52;7.80;99.90
3942;DHT22;1985;48.592;8.850;2023-04-25T05:10:18;7.80;99.90
3942;DHT22;1985;48.592;8.850;2023-04-25T05:12:44;8.00;99.90
3942;DHT22;1985;48.592;8.850;2023-04-25T05:15:10;8.10;99.90
3942;DHT22;1985;48.592;8.850;2023-04-25T05:17:36;8.20;99.90
3942;DHT22;1985;48.592;8.850;2023-04-25T05:20:02;8.30;99.90
3942;DHT22;1985;48.592;8.850;2023-04-25T05:22:29;8.40;99.90
3942;DHT22;1985;48.592;8.850;2023-04-25T05:24:55;8.50;99.90
3942;DHT22;1985;48.592;8.850;2023-04-25T05:27:20;8.60;99.90
3942;DHT22;1985;48.592;8.850;2023-04-25T05:29:46;8.80;99.90
3942;DHT22;1985;48.592;8.850;2023-04-25T05:32:12;8.90;99.90
3942;DHT22;1985;48.592;8.850;2023-04-25T05:34:37;9.00;99.90
3942;DHT22;1985;48.592;8.850;2023-04-25T05:37:03;9.10;99.90
3942;DHT22;1985;48.592;8.850;2023-04-25T05:39:29;9.20;99.90
3942;DHT22;1985;48.592;8.850;2023-04-25T05:41:54;9.30;99.90
3942;DHT22;1985;48.592;8.850;2023-04-25T05:44:20;9.30;99.90
3942;DHT22;1985;48.592;8.850;2023-04-25T05:46:46;9.20;99.90
3942;DHT22;1985;48.592;8.850;2023-04-25T05:49:12;9.20;99.90
3942;DHT22;1985;48.592;8.850;2023-04-25T05:51:38;9.10;99.90
3942;DHT22;1985;48.592;8.850;2023-04-25T05:54:03;9.00;99.90
3942;DHT22;1985;48.592;8.850;2023-04-25T05:56:29;9.10;99.90
3942;DHT22;1985;48.592;8.850;2023-04-25T05:58:55;9.30;99.90
3942;DHT22;1985;48.592;8.850;2023-04-25T06:01:22;9.40;99.90
3942;DHT22;1985;48.592;8.850;2023-04-25T06:03:48;9.60;99.90
3942;DHT22;1985;48.592;8.850;2023-04-25T06:06:13;9.60;99.90
3942;DHT22;1985;48.592;8.850;2023-04-25T06:08:40;9.50;99.90
3942;DHT22;1985;48.592;8.850;2023-04-25T06:11:06;9.50;99.90
3942;DHT22;1985;48.592;8.850;2023-04-25T06:13:32;9.50;99.90
3942;DHT22;1985;48.592;8.850;2023-04-25T06:15:58;9.40;99.90
3942;DHT22;1985;48.592;8.850;2023-04-25T06:18:23;9.00;99.90
3942;DHT22;1985;48.592;8.850;2023-04-25T06:20:49;9.00;99.90
3942;DHT22;1985;48.592;8.850;2023-04-25T06:23:14;9.10;99.90
3942;DHT22;1985;48.592;8.850;2023-04-25T06:25:40;9.30;99.90
3942;DHT22;1985;48.592;8.850;2023-04-25T06:28:05;9.50;99.90
3942;DHT22;1985;48.592;8.850;2023-04-25T06:30:31;9.60;99.90
3942;DHT22;1985;48.592;8.850;2023-04-25T06:32:57;9.70;99.90
3942;DHT22;1985;48.592;8.850;2023-04-25T06:35:22;9.80;99.90
3942;DHT22;1985;48.592;8.850;2023-04-25T06:37:48;9.80;99.90
3942;DHT22;1985;48.592;8.850;2023-04-25T06:40:13;9.90;99.90
3942;DHT22;1985;48.592;8.850;2023-04-25T06:42:40;9.90;99.90
3942;DHT22;1985;48.592;8.850;2023-04-25T06:45:06;9.90;99.90
3942;DHT22;1985;48.592;8.850;2023-04-25T06:47:32;9.90;99.90
3942;DHT22;1985;48.592;8.850;2023-04-25T06:49:57;10.00;99.90
3942;DHT22;1985;48.592;8.850;2023-04-25T06:52:23;9.90;99.90
3942;DHT22;1985;48.592;8.850;2023-04-25T06:54:49;9.80;99.90
3942;DHT22;1985;48.592;8.850;2023-04-25T06:57:14;9.50;99.90
3942;DHT22;1985;48.592;8.850;2023-04-25T06:59:40;8.90;99.90
3942;DHT22;1985;48.592;8.850;2023-04-25T07:02:06;8.70;99.90
3942;DHT22;1985;48.592;8.850;2023-04-25T07:04:31;8.70;99.90
3942;DHT22;1985;48.592;8.850;2023-04-25T07:06:57;8.70;99.90
3942;DHT22;1985;48.592;8.850;2023-04-25T07:09:22;8.80;99.90
3942;DHT22;1985;48.592;8.850;2023-04-25T07:11:48;8.70;99.90
3942;DHT22;1985;48.592;8.850;2023-04-25T07:14:14;8.60;99.90
3942;DHT22;1985;48.592;8.850;2023-04-25T07:16:40;8.70;99.90
3942;DHT22;1985;48.592;8.850;2023-04-25T07:19:06;8.60;99.90
3942;DHT22;1985;48.592;8.850;2023-04-25T07:21:31;8.70;99.90
3942;DHT22;1985;48.592;8.850;2023-04-25T07:23:58;8.80;99.90
3942;DHT22;1985;48.592;8.850;2023-04-25T07:26:23;8.90;99.90
3942;DHT22;1985;48.592;8.850;2023-04-25T07:28:49;9.00;99.90
3942;DHT22;1985;48.592;8.850;2023-04-25T07:31:17;9.00;99.90
3942;DHT22;1985;48.592;8.850;2023-04-25T07:33:44;8.90;99.90
3942;DHT22;1985;48.592;8.850;2023-04-25T07:36:10;8.70;99.90
3942;DHT22;1985;48.592;8.850;2023-04-25T07:38:36;8.70;99.90
3942;DHT22;1985;48.592;8.850;2023-04-25T07:41:01;8.70;99.90
3942;DHT22;1985;48.592;8.850;2023-04-25T07:43:27;8.60;99.90
3942;DHT22;1985;48.592;8.850;2023-04-25T07:45:53;8.50;99.90
3942;DHT22;1985;48.592;8.850;2023-04-25T07:48:18;8.30;99.90
3942;DHT22;1985;48.592;8.850;2023-04-25T07:50:44;8.40;99.90
3942;DHT22;1985;48.592;8.850;2023-04-25T07:53:10;8.50;99.90
3942;DHT22;1985;48.592;8.850;2023-04-25T07:55:36;8.40;99.90
3942;DHT22;1985;48.592;8.850;2023-04-25T07:58:08;8.40;99.90
3942;DHT22;1985;48.592;8.850;2023-04-25T08:00:34;8.40;99.90
3942;DHT22;1985;48.592;8.850;2023-04-25T08:03:00;8.50;99.90
3942;DHT22;1985;48.592;8.850;2023-04-25T08:05:25;8.40;99.90
3942;DHT22;1985;48.592;8.850;2023-04-25T08:07:51;8.30;99.90
3942;DHT22;1985;48.592;8.850;2023-04-25T08:10:17;8.20;99.90
3942;DHT22;1985;48.592;8.850;2023-04-25T08:12:42;8.20;99.90
3942;DHT22;1985;48.592;8.850;2023-04-25T08:15:08;8.10;99.90
3942;DHT22;1985;48.592;8.850;2023-04-25T08:17:34;8.00;99.90
3942;DHT22;1985;48.592;8.850;2023-04-25T08:20:00;8.00;99.90
3942;DHT22;1985;48.592;8.850;2023-04-25T08:22:25;7.70;99.90
3942;DHT22;1985;48.592;8.850;2023-04-25T08:24:51;7.80;99.90
3942;DHT22;1985;48.592;8.850;2023-04-25T08:27:18;7.70;99.90
3942;DHT22;1985;48.592;8.850;2023-04-25T08:29:44;7.80;99.90
3942;DHT22;1985;48.592;8.850;2023-04-25T08:32:09;7.80;99.90
3942;DHT22;1985;48.592;8.850;2023-04-25T08:34:35;7.80;99.90
3942;DHT22;1985;48.592;8.850;2023-04-25T08:37:02;7.80;99.90
3942;DHT22;1985;48.592;8.850;2023-04-25T08:39:29;7.70;99.90
3942;DHT22;1985;48.592;8.850;2023-04-25T08:41:56;7.80;99.90
3942;DHT22;1985;48.592;8.850;2023-04-25T08:44:22;7.80;99.90
3942;DHT22;1985;48.592;8.850;2023-04-25T08:46:49;7.90;99.90
3942;DHT22;1985;48.592;8.850;2023-04-25T08:49:17;7.80;99.90
3942;DHT22;1985;48.592;8.850;2023-04-25T08:51:45;7.70;99.90
3942;DHT22;1985;48.592;8.850;2023-04-25T08:54:13;7.30;99.90
3942;DHT22;1985;48.592;8.850;2023-04-25T08:56:41;7.00;99.90
3942;DHT22;1985;48.592;8.850;2023-04-25T08:59:10;6.80;99.90
3942;DHT22;1985;48.592;8.850;2023-04-25T09:01:35;6.40;99.90
3942;DHT22;1985;48.592;8.850;2023-04-25T09:04:01;6.10;99.90
3942;DHT22;1985;48.592;8.850;2023-04-25T09:06:29;6.10;99.90
3942;DHT22;1985;48.592;8.850;2023-04-25T09:09:04;6.10;99.90
3942;DHT22;1985;48.592;8.850;2023-04-25T09:11:30;6.00;99.90
3942;DHT22;1985;48.592;8.850;2023-04-25T09:14:16;5.90;99.90
3942;DHT22;1985;48.592;8.850;2023-04-25T09:17:11;6.00;99.90
3942;DHT22;1985;48.592;8.850;2023-04-25T09:19:37;6.00;99.90
3942;DHT22;1985;48.592;8.850;2023-04-25T09:22:07;5.70;99.90
3942;DHT22;1985;48.592;8.850;2023-04-25T09:24:40;5.60;99.90
3942;DHT22;1985;48.592;8.850;2023-04-25T09:27:10;5.50;99.90
3942;DHT22;1985;48.592;8.850;2023-04-25T09:29:38;5.50;99.90
3942;DHT22;1985;48.592;8.850;2023-04-25T09:32:20;5.50;99.90
3942;DHT22;1985;48.592;8.850;2023-04-25T09:34:51;5.50;99.90
3942;DHT22;1985;48.592;8.850;2023-04-25T09:37:22;5.60;99.90
3942;DHT22;1985;48.592;8.850;2023-04-25T09:39:49;5.70;99.90
3942;DHT22;1985;48.592;8.850;2023-04-25T09:42:16;5.70;99.90
3942;DHT22;1985;48.592;8.850;2023-04-25T09:44:46;5.50;99.90
3942;DHT22;1985;48.592;8.850;2023-04-25T09:47:15;5.40;99.90
3942;DHT22;1985;48.592;8.850;2023-04-25T09:49:43;5.40;99.90
3942;DHT22;1985;48.592;8.850;2023-04-25T09:52:17;5.60;99.90
3942;DHT22;1985;48.592;8.850;2023-04-25T09:54:47;5.70;99.90
3942;DHT22;1985;48.592;8.850;2023-04-25T09:57:17;5.70;99.90
3942;DHT22;1985;48.592;8.850;2023-04-25T09:59:48;5.60;99.90
3942;DHT22;1985;48.592;8.850;2023-04-25T10:02:16;5.80;99.90
3942;DHT22;1985;48.592;8.850;2023-04-25T10:04:44;6.20;99.90
3942;DHT22;1985;48.592;8.850;2023-04-25T10:07:13;6.00;99.90
3942;DHT22;1985;48.592;8.850;2023-04-25T10:09:39;5.60;99.90
3942;DHT22;1985;48.592;8.850;2023-04-25T10:12:07;5.50;99.90
3942;DHT22;1985;48.592;8.850;2023-04-25T10:14:33;5.40;99.90
3942;DHT22;1985;48.592;8.850;2023-04-25T10:17:00;5.40;99.90
3942;DHT22;1985;48.592;8.850;2023-04-25T10:19:27;5.40;99.90
3942;DHT22;1985;48.592;8.850;2023-04-25T10:24:19;5.60;99.90
3942;DHT22;1985;48.592;8.850;2023-04-25T10:26:46;5.80;99.90
3942;DHT22;1985;48.592;8.850;2023-04-25T10:29:12;6.10;99.90
3942;DHT22;1985;48.592;8.850;2023-04-25T10:31:46;6.20;99.90
3942;DHT22;1985;48.592;8.850;2023-04-25T10:34:12;6.30;99.90
3942;DHT22;1985;48.592;8.850;2023-04-25T10:36:38;6.50;99.90
3942;DHT22;1985;48.592;8.850;2023-04-25T10:39:05;6.80;99.90
3942;DHT22;1985;48.592;8.850;2023-04-25T10:41:45;6.80;99.90
3942;DHT22;1985;48.592;8.850;2023-04-25T10:44:11;6.50;99.90
3942;DHT22;1985;48.592;8.850;2023-04-25T10:46:37;6.60;99.90
3942;DHT22;1985;48.592;8.850;2023-04-25T10:49:03;6.40;99.90
3942;DHT22;1985;48.592;8.850;2023-04-25T10:51:33;6.40;99.90
3942;DHT22;1985;48.592;8.850;2023-04-25T10:56:37;6.70;99.90
3942;DHT22;1985;48.592;8.850;2023-04-25T10:59:11;6.80;99.90
3942;DHT22;1985;48.592;8.850;2023-04-25T11:01:44;7.00;99.90
3942;DHT22;1985;48.592;8.850;2023-04-25T11:04:28;7.20;99.90
3942;DHT22;1985;48.592;8.850;2023-04-25T11:07:26;7.30;99.90
3942;DHT22;1985;48.592;8.850;2023-04-25T11:09:54;7.20;99.90
3942;DHT22;1985;48.592;8.850;2023-04-25T11:12:20;7.40;99.90
3942;DHT22;1985;48.592;8.850;2023-04-25T11:14:45;7.40;99.90
3942;DHT22;1985;48.592;8.850;2023-04-25T11:17:11;7.30;99.90
3942;DHT22;1985;48.592;8.850;2023-04-25T11:19:37;7.40;99.90
3942;DHT22;1985;48.592;8.850;2023-04-25T11:22:03;7.40;99.90
3942;DHT22;1985;48.592;8.850;2023-04-25T11:24:29;7.70;99.90
3942;DHT22;1985;48.592;8.850;2023-04-25T11:26:56;8.20;99.90
3942;DHT22;1985;48.592;8.850;2023-04-25T11:29:23;8.50;99.90
3942;DHT22;1985;48.592;8.850;2023-04-25T11:31:49;8.50;99.90
3942;DHT22;1985;48.592;8.850;2023-04-25T11:34:18;8.50;99.90
3942;DHT22;1985;48.592;8.850;2023-04-25T11:36:45;8.50;99.90
3942;DHT22;1985;48.592;8.850;2023-04-25T11:39:11;8.50;99.90
3942;DHT22;1985;48.592;8.850;2023-04-25T11:41:38;8.60;99.90
3942;DHT22;1985;48.592;8.850;2023-04-25T11:44:04;8.40;99.90
3942;DHT22;1985;48.592;8.850;2023-04-25T11:46:30;8.60;99.90
3942;DHT22;1985;48.592;8.850;2023-04-25T11:48:59;8.90;99.90
3942;DHT22;1985;48.592;8.850;2023-04-25T11:51:25;9.00;99.90
3942;DHT22;1985;48.592;8.850;2023-04-25T11:53:51;8.60;99.90
3942;DHT22;1985;48.592;8.850;2023-04-25T11:56:17;8.50;99.90
3942;DHT22;1985;48.592;8.850;2023-04-25T11:58:59;8.70;99.90
3942;DHT22;1985;48.592;8.850;2023-04-25T12:01:34;8.80;99.90
3942;DHT22;1985;48.592;8.850;2023-04-25T12:04:17;8.80;99.90
3942;DHT22;1985;48.592;8.850;2023-04-25T12:06:44;8.70;99.90
3942;DHT22;1985;48.592;8.850;2023-04-25T12:09:13;8.60;99.90
3942;DHT22;1985;48.592;8.850;2023-04-25T12:11:45;8.70;99.90
3942;DHT22;1985;48.592;8.850;2023-04-25T12:14:12;8.70;99.90
3942;DHT22;1985;48.592;8.850;2023-04-25T12:16:45;8.70;99.90
3942;DHT22;1985;48.592;8.850;2023-04-25T12:19:16;8.70;99.90
3942;DHT22;1985;48.592;8.850;2023-04-25T12:21:42;8.70;99.90
3942;DHT22;1985;48.592;8.850;2023-04-25T12:24:18;8.70;99.90
3942;DHT22;1985;48.592;8.850;2023-04-25T12:29:21;8.70;99.90
3942;DHT22;1985;48.592;8.850;2023-04-25T12:31:48;8.70;99.90
3942;DHT22;1985;48.592;8.850;2023-04-25T12:34:13;8.70;99.90
3942;DHT22;1985;48.592;8.850;2023-04-25T12:36:40;8.80;99.90
3942;DHT22;1985;48.592;8.850;2023-04-25T12:39:05;8.80;99.90
3942;DHT22;1985;48.592;8.850;2023-04-25T12:41:32;8.90;99.90
3942;DHT22;1985;48.592;8.850;2023-04-25T12:43:57;9.00;99.90
3942;DHT22;1985;48.592;8.850;2023-04-25T12:46:23;9.10;99.90
3942;DHT22;1985;48.592;8.850;2023-04-25T12:48:49;9.10;99.90
3942;DHT22;1985;48.592;8.850;2023-04-25T12:51:14;9.20;99.90
3942;DHT22;1985;48.592;8.850;2023-04-25T12:53:41;9.10;99.90
3942;DHT22;1985;48.592;8.850;2023-04-25T12:56:09;9.20;99.90
3942;DHT22;1985;48.592;8.850;2023-04-25T12:58:35;9.40;99.90
3942;DHT22;1985;48.592;8.850;2023-04-25T13:01:01;9.50;99.90
3942;DHT22;1985;48.592;8.850;2023-04-25T13:03:26;9.60;99.90
3942;DHT22;1985;48.592;8.850;2023-04-25T13:05:52;9.60;99.90
3942;DHT22;1985;48.592;8.850;2023-04-25T13:08:21;9.70;99.90
3942;DHT22;1985;48.592;8.850;2023-04-25T13:10:49;9.70;99.90
3942;DHT22;1985;48.592;8.850;2023-04-25T13:13:15;9.80;99.90
3942;DHT22;1985;48.592;8.850;2023-04-25T13:15:42;10.10;99.90
3942;DHT22;1985;48.592;8.850;2023-04-25T13:18:07;10.20;99.90
3942;DHT22;1985;48.592;8.850;2023-04-25T13:20:33;10.40;99.90
3942;DHT22;1985;48.592;8.850;2023-04-25T13:22:59;10.60;99.90
3942;DHT22;1985;48.592;8.850;2023-04-25T13:25:25;10.90;99.90
3942;DHT22;1985;48.592;8.850;2023-04-25T13:27:52;11.30;99.90
3942;DHT22;1985;48.592;8.850;2023-04-25T13:30:18;11.60;99.90
3942;DHT22;1985;48.592;8.850;2023-04-25T13:32:43;11.90;99.90
3942;DHT22;1985;48.592;8.850;2023-04-25T13:35:11;12.10;99.90
3942;DHT22;1985;48.592;8.850;2023-04-25T13:37:38;12.40;99.90
3942;DHT22;1985;48.592;8.850;2023-04-25T13:40:08;13.00;99.90
3942;DHT22;1985;48.592;8.850;2023-04-25T13:42:35;13.40;99.90
3942;DHT22;1985;48.592;8.850;2023-04-25T13:45:01;13.00;99.90
3942;DHT22;1985;48.592;8.850;2023-04-25T13:47:27;12.80;99.90
3942;DHT22;1985;48.592;8.850;2023-04-25T13:49:53;13.00;99.90
3942;DHT22;1985;48.592;8.850;2023-04-25T13:52:19;13.40;99.90
3942;DHT22;1985;48.592;8.850;2023-04-25T13:54:49;13.60;99.90
3942;DHT22;1985;48.592;8.850;2023-04-25T13:57:15;13.60;99.90
3942;DHT22;1985;48.592;8.850;2023-04-25T13:59:44;13.50;99.90
3942;DHT22;1985;48.592;8.850;2023-04-25T14:02:10;13.30;99.90
3942;DHT22;1985;48.592;8.850;2023-04-25T14:04:35;13.00;99.90
3942;DHT22;1985;48.592;8.850;2023-04-25T14:07:02;12.60;99.90
3942;DHT22;1985;48.592;8.850;2023-04-25T14:09:28;12.30;99.90
3942;DHT22;1985;48.592;8.850;2023-04-25T14:11:54;12.20;99.90
3942;DHT22;1985;48.592;8.850;2023-04-25T14:14:21;12.20;99.90
3942;DHT22;1985;48.592;8.850;2023-04-25T14:16:48;12.20;99.90
3942;DHT22;1985;48.592;8.850;2023-04-25T14:19:14;12.10;99.90
3942;DHT22;1985;48.592;8.850;2023-04-25T14:21:40;12.00;99.90
3942;DHT22;1985;48.592;8.850;2023-04-25T14:24:06;12.00;99.90
3942;DHT22;1985;48.592;8.850;2023-04-25T14:26:33;12.10;99.90
3942;DHT22;1985;48.592;8.850;2023-04-25T14:29:00;12.10;99.90
3942;DHT22;1985;48.592;8.850;2023-04-25T14:31:26;12.10;99.90
3942;DHT22;1985;48.592;8.850;2023-04-25T14:33:52;11.80;99.90
3942;DHT22;1985;48.592;8.850;2023-04-25T14:36:18;11.50;99.90
3942;DHT22;1985;48.592;8.850;2023-04-25T14:38:44;11.60;99.90
3942;DHT22;1985;48.592;8.850;2023-04-25T14:41:09;11.80;99.90
3942;DHT22;1985;48.592;8.850;2023-04-25T14:43:36;11.80;99.90
3942;DHT22;1985;48.592;8.850;2023-04-25T14:46:02;11.90;99.90
3942;DHT22;1985;48.592;8.850;2023-04-25T14:48:29;12.00;99.90
3942;DHT22;1985;48.592;8.850;2023-04-25T14:50:55;12.20;99.90
3942;DHT22;1985;48.592;8.850;2023-04-25T14:53:23;12.30;99.90
3942;DHT22;1985;48.592;8.850;2023-04-25T14:55:48;12.20;99.90
3942;DHT22;1985;48.592;8.850;2023-04-25T14:58:14;12.20;99.90
3942;DHT22;1985;48.592;8.850;2023-04-25T15:00:41;12.30;99.90
3942;DHT22;1985;48.592;8.850;2023-04-25T15:03:06;12.40;99.90
3942;DHT22;1985;48.592;8.850;2023-04-25T15:05:33;12.40;99.90
3942;DHT22;1985;48.592;8.850;2023-04-25T15:07:59;12.20;99.90
3942;DHT22;1985;48.592;8.850;2023-04-25T15:10:25;12.20;99.90
3942;DHT22;1985;48.592;8.850;2023-04-25T15:12:51;12.30;99.90
3942;DHT22;1985;48.592;8.850;2023-04-25T15:15:18;12.50;99.90
3942;DHT22;1985;48.592;8.850;2023-04-25T15:17:44;12.50;99.90
3942;DHT22;1985;48.592;8.850;2023-04-25T15:20:12;12.80;99.90
3942;DHT22;1985;48.592;8.850;2023-04-25T15:22:42;12.90;99.90
3942;DHT22;1985;48.592;8.850;2023-04-25T15:25:08;12.90;99.90
3942;DHT22;1985;48.592;8.850;2023-04-25T15:27:35;12.80;99.90
3942;DHT22;1985;48.592;8.850;2023-04-25T15:30:06;12.80;99.90
3942;DHT22;1985;48.592;8.850;2023-04-25T15:32:33;12.80;99.90
3942;DHT22;1985;48.592;8.850;2023-04-25T15:35:01;12.80;99.90
3942;DHT22;1985;48.592;8.850;2023-04-25T15:37:27;12.70;99.90
3942;DHT22;1985;48.592;8.850;2023-04-25T15:40:04;12.60;99.90
3942;DHT22;1985;48.592;8.850;2023-04-25T15:45:04;12.60;99.90
3942;DHT22;1985;48.592;8.850;2023-04-25T15:47:29;12.60;99.90
3942;DHT22;1985;48.592;8.850;2023-04-25T15:49:55;12.70;99.90
3942;DHT22;1985;48.592;8.850;2023-04-25T15:52:21;12.60;99.90
3942;DHT22;1985;48.592;8.850;2023-04-25T15:54:47;12.70;99.90
3942;DHT22;1985;48.592;8.850;2023-04-25T15:57:13;12.80;99.90
3942;DHT22;1985;48.592;8.850;2023-04-25T15:59:39;12.60;99.90
3942;DHT22;1985;48.592;8.850;2023-04-25T16:02:05;12.30;99.50
3942;DHT22;1985;48.592;8.850;2023-04-25T16:04:32;11.90;99.90
3942;DHT22;1985;48.592;8.850;2023-04-25T16:07:00;11.40;99.90
3942;DHT22;1985;48.592;8.850;2023-04-25T16:09:28;11.10;99.90
3942;DHT22;1985;48.592;8.850;2023-04-25T16:11:54;10.80;99.90
3942;DHT22;1985;48.592;8.850;2023-04-25T16:14:19;10.60;99.90
3942;DHT22;1985;48.592;8.850;2023-04-25T16:16:45;10.70;99.90
3942;DHT22;1985;48.592;8.850;2023-04-25T16:19:11;10.70;99.90
3942;DHT22;1985;48.592;8.850;2023-04-25T16:21:36;10.80;99.90